sensor_id;sensor_type;location;lat;lon;timestamp;pressure;altitude;pressure_sealevel;temperature;humidity
6132;BME280;3097;42.692;23.278;2023-03-20T00:01:17;95346.63;;;5.89;72.12
6132;BME280;3097;42.692;23.278;2023-03-20T00:03:44;95347.94;;;5.84;72.36
6132;BME280;3097;42.692;23.278;2023-03-20T00:06:17;95346.09;;;5.78;72.59
6132;BME280;3097;42.692;23.278;2023-03-20T00:08:44;95337.09;;;5.82;72.43
6132;BME280;3097;42.692;23.278;2023-03-20T00:13:54;95339.09;;;5.87;71.82
6132;BME280;3097;42.692;23.278;2023-03-20T00:16:22;95342.47;;;5.88;72.07
6132;BME280;3097;42.692;23.278;2023-03-20T00:18:48;95307.16;;;5.62;72.31
6132;BME280;3097;42.692;23.278;2023-03-20T00:21:17;95329.38;;;5.61;73.02
6132;BME280;3097;42.692;23.278;2023-03-20T00:23:43;95335.13;;;5.63;72.86
6132;BME280;3097;42.692;23.278;2023-03-20T00:26:14;95330.44;;;5.52;73.29
6132;BME280;3097;42.692;23.278;2023-03-20T00:28:46;95322.06;;;5.58;73.08
6132;BME280;3097;42.692;23.278;2023-03-20T00:31:32;95324.09;;;5.63;73.12
6132;BME280;3097;42.692;23.278;2023-03-20T00:34:00;95329.13;;;5.56;73.40
6132;BME280;3097;42.692;23.278;2023-03-20T00:36:27;95317.56;;;5.60;73.29
6132;BME280;3097;42.692;23.278;2023-03-20T00:38:53;95329.13;;;5.56;73.47
6132;BME280;3097;42.692;23.278;2023-03-20T00:41:27;95320.13;;;5.45;73.99
6132;BME280;3097;42.692;23.278;2023-03-20T00:44:03;95332.13;;;5.45;74.13
6132;BME280;3097;42.692;23.278;2023-03-20T00:46:36;95325.59;;;5.42;74.10
6132;BME280;3097;42.692;23.278;2023-03-20T00:49:03;95292.94;;;5.23;74.09
6132;BME280;3097;42.692;23.278;2023-03-20T00:51:28;95322.16;;;5.50;73.83
6132;BME280;3097;42.692;23.278;2023-03-20T00:53:54;95323.75;;;5.51;74.13
6132;BME280;3097;42.692;23.278;2023-03-20T00:56:35;95322.44;;;5.55;73.82
6132;BME280;3097;42.692;23.278;2023-03-20T00:59:04;95318.91;;;5.41;74.14
6132;BME280;3097;42.692;23.278;2023-03-20T01:01:30;95324.56;;;5.37;74.38
6132;BME280;3097;42.692;23.278;2023-03-20T01:03:57;95317.59;;;5.31;74.47
6132;BME280;3097;42.692;23.278;2023-03-20T01:06:23;95313.44;;;5.30;74.53
6132;BME280;3097;42.692;23.278;2023-03-20T01:08:48;95313.19;;;5.25;74.51
6132;BME280;3097;42.692;23.278;2023-03-20T01:11:15;95311.00;;;5.22;75.18
6132;BME280;3097;42.692;23.278;2023-03-20T01:13:45;95306.66;;;5.22;74.60
6132;BME280;3097;42.692;23.278;2023-03-20T01:16:20;95303.41;;;5.14;75.04
6132;BME280;3097;42.692;23.278;2023-03-20T01:18:47;95304.28;;;5.06;75.38
6132;BME280;3097;42.692;23.278;2023-03-20T01:21:13;95299.09;;;4.99;75.81
6132;BME280;3097;42.692;23.278;2023-03-20T01:23:38;95300.78;;;5.07;75.48
6132;BME280;3097;42.692;23.278;2023-03-20T01:26:54;95301.31;;;5.17;75.01
6132;BME280;3097;42.692;23.278;2023-03-20T01:28:54;95295.50;;;5.09;75.37
6132;BME280;3097;42.692;23.278;2023-03-20T01:31:20;95304.75;;;5.10;75.36
6132;BME280;3097;42.692;23.278;2023-03-20T01:33:45;95305.78;;;5.00;75.86
6132;BME280;3097;42.692;23.278;2023-03-20T01:36:16;95292.69;;;5.03;75.92
6132;BME280;3097;42.692;23.278;2023-03-20T01:38:42;95301.91;;;5.04;76.11
6132;BME280;3097;42.692;23.278;2023-03-20T01:41:13;95311.94;;;5.06;75.74
6132;BME280;3097;42.692;23.278;2023-03-20T01:43:41;95301.81;;;4.98;75.98
6132;BME280;3097;42.692;23.278;2023-03-20T01:46:26;95307.97;;;4.89;76.62
6132;BME280;3097;42.692;23.278;2023-03-20T01:51:31;95286.41;;;4.77;76.30
6132;BME280;3097;42.692;23.278;2023-03-20T01:56:22;95307.91;;;4.97;76.42
6132;BME280;3097;42.692;23.278;2023-03-20T01:59:33;95304.47;;;4.90;76.45
6132;BME280;3097;42.692;23.278;2023-03-20T02:01:57;95306.59;;;4.86;76.71
6132;BME280;3097;42.692;23.278;2023-03-20T02:04:26;95282.78;;;4.71;76.71
6132;BME280;3097;42.692;23.278;2023-03-20T02:06:54;95297.41;;;4.77;77.08
6132;BME280;3097;42.692;23.278;2023-03-20T02:09:20;95293.28;;;4.76;77.09
6132;BME280;3097;42.692;23.278;2023-03-20T02:11:46;95303.84;;;4.73;77.31
6132;BME280;3097;42.692;23.278;2023-03-20T02:14:13;95295.91;;;4.68;77.60
6132;BME280;3097;42.692;23.278;2023-03-20T02:16:39;95301.47;;;4.72;77.35
6132;BME280;3097;42.692;23.278;2023-03-20T02:19:07;95304.97;;;4.71;77.17
6132;BME280;3097;42.692;23.278;2023-03-20T02:33:00;95308.47;;;4.55;77.48
6132;BME280;3097;42.692;23.278;2023-03-20T02:57:52;95293.84;;;4.49;77.40
6132;BME280;3097;42.692;23.278;2023-03-20T03:00:27;95283.13;;;4.53;77.50
6132;BME280;3097;42.692;23.278;2023-03-20T03:03:04;95298.00;;;4.50;77.54
6132;BME280;3097;42.692;23.278;2023-03-20T03:05:42;95295.50;;;4.42;77.82
6132;BME280;3097;42.692;23.278;2023-03-20T03:08:11;95277.88;;;4.32;77.97
6132;BME280;3097;42.692;23.278;2023-03-20T03:11:11;95293.22;;;4.47;77.67
6132;BME280;3097;42.692;23.278;2023-03-20T03:13:41;95286.38;;;4.47;77.44
6132;BME280;3097;42.692;23.278;2023-03-20T03:16:14;95281.31;;;4.39;77.49
6132;BME280;3097;42.692;23.278;2023-03-20T03:18:43;95292.06;;;4.35;78.06
6132;BME280;3097;42.692;23.278;2023-03-20T03:21:11;95295.22;;;4.37;78.10
6132;BME280;3097;42.692;23.278;2023-03-20T03:23:50;95290.47;;;4.34;77.91
6132;BME280;3097;42.692;23.278;2023-03-20T03:26:37;95292.41;;;4.32;78.21
6132;BME280;3097;42.692;23.278;2023-03-20T03:29:11;95239.97;;;4.06;77.69
6132;BME280;3097;42.692;23.278;2023-03-20T03:31:39;95287.13;;;4.33;77.95
6132;BME280;3097;42.692;23.278;2023-03-20T03:34:09;95282.47;;;4.14;78.42
6132;BME280;3097;42.692;23.278;2023-03-20T03:41:51;95292.47;;;4.23;78.41
6132;BME280;3097;42.692;23.278;2023-03-20T03:44:28;95290.53;;;4.25;78.22
6132;BME280;3097;42.692;23.278;2023-03-20T03:47:07;95276.94;;;4.10;78.63
6132;BME280;3097;42.692;23.278;2023-03-20T03:49:41;95283.22;;;4.22;78.33
6132;BME280;3097;42.692;23.278;2023-03-20T03:52:10;95283.03;;;4.24;78.25
6132;BME280;3097;42.692;23.278;2023-03-20T03:54:43;95284.31;;;4.05;78.89
6132;BME280;3097;42.692;23.278;2023-03-20T03:57:12;95281.47;;;4.00;79.15
6132;BME280;3097;42.692;23.278;2023-03-20T03:59:44;95230.19;;;3.72;78.97
6132;BME280;3097;42.692;23.278;2023-03-20T04:02:12;95274.81;;;4.14;78.48
6132;BME280;3097;42.692;23.278;2023-03-20T04:04:42;95279.81;;;4.07;78.90
6132;BME280;3097;42.692;23.278;2023-03-20T04:07:10;95280.78;;;4.06;78.66
6132;BME280;3097;42.692;23.278;2023-03-20T04:09:37;95254.44;;;3.91;78.30
6132;BME280;3097;42.692;23.278;2023-03-20T04:12:02;95245.28;;;3.82;78.68
6132;BME280;3097;42.692;23.278;2023-03-20T04:14:28;95282.38;;;4.07;78.74
6132;BME280;3097;42.692;23.278;2023-03-20T04:16:53;95261.91;;;3.93;78.82
6132;BME280;3097;42.692;23.278;2023-03-20T04:19:19;95271.63;;;3.97;79.12
6132;BME280;3097;42.692;23.278;2023-03-20T04:21:44;95237.97;;;3.79;79.41
6132;BME280;3097;42.692;23.278;2023-03-20T04:24:10;95262.56;;;3.95;79.60
6132;BME280;3097;42.692;23.278;2023-03-20T04:26:36;95174.19;;;3.41;79.25
6132;BME280;3097;42.692;23.278;2023-03-20T04:29:02;95265.22;;;4.01;79.41
6132;BME280;3097;42.692;23.278;2023-03-20T04:31:28;95269.34;;;4.02;79.08
6132;BME280;3097;42.692;23.278;2023-03-20T04:33:54;95241.25;;;3.87;79.08
6132;BME280;3097;42.692;23.278;2023-03-20T04:36:20;95256.22;;;3.91;79.28
6132;BME280;3097;42.692;23.278;2023-03-20T04:38:45;95269.63;;;4.07;79.53
6132;BME280;3097;42.692;23.278;2023-03-20T04:41:11;95278.16;;;4.14;79.06
6132;BME280;3097;42.692;23.278;2023-03-20T04:43:37;95287.34;;;4.23;79.14
6132;BME280;3097;42.692;23.278;2023-03-20T04:46:04;95261.16;;;4.07;79.20
6132;BME280;3097;42.692;23.278;2023-03-20T04:48:30;95287.91;;;4.34;79.13
6132;BME280;3097;42.692;23.278;2023-03-20T04:50:56;95281.22;;;4.33;78.92
6132;BME280;3097;42.692;23.278;2023-03-20T04:53:23;95283.19;;;4.60;78.17
6132;BME280;3097;42.692;23.278;2023-03-20T04:55:49;95263.06;;;4.65;77.63
6132;BME280;3097;42.692;23.278;2023-03-20T04:58:15;95253.38;;;4.75;77.00
6132;BME280;3097;42.692;23.278;2023-03-20T05:00:40;95299.09;;;5.29;75.88
6132;BME280;3097;42.692;23.278;2023-03-20T05:03:06;95283.31;;;5.25;75.59
6132;BME280;3097;42.692;23.278;2023-03-20T05:05:31;95306.66;;;5.73;74.58
6132;BME280;3097;42.692;23.278;2023-03-20T05:07:58;95308.31;;;5.95;73.35
6132;BME280;3097;42.692;23.278;2023-03-20T05:10:23;95302.66;;;6.00;72.31
6132;BME280;3097;42.692;23.278;2023-03-20T05:12:49;95311.72;;;6.02;72.36
6132;BME280;3097;42.692;23.278;2023-03-20T05:15:14;95316.66;;;6.25;71.92
6132;BME280;3097;42.692;23.278;2023-03-20T05:17:40;95314.78;;;6.34;70.65
6132;BME280;3097;42.692;23.278;2023-03-20T05:20:06;95315.25;;;6.65;69.96
6132;BME280;3097;42.692;23.278;2023-03-20T05:22:31;95286.44;;;6.63;68.56
6132;BME280;3097;42.692;23.278;2023-03-20T05:24:57;95299.03;;;6.86;68.12
6132;BME280;3097;42.692;23.278;2023-03-20T05:27:22;95316.38;;;7.18;67.35
6132;BME280;3097;42.692;23.278;2023-03-20T05:29:48;95318.84;;;7.39;67.09
6132;BME280;3097;42.692;23.278;2023-03-20T05:32:13;95204.47;;;6.91;66.22
6132;BME280;3097;42.692;23.278;2023-03-20T05:34:38;95318.38;;;7.64;66.30
6132;BME280;3097;42.692;23.278;2023-03-20T05:37:05;95303.59;;;7.66;65.20
6132;BME280;3097;42.692;23.278;2023-03-20T05:39:30;95294.94;;;7.73;64.94
6132;BME280;3097;42.692;23.278;2023-03-20T05:41:56;95326.78;;;8.05;64.99
6132;BME280;3097;42.692;23.278;2023-03-20T05:44:21;95327.38;;;8.07;64.84
6132;BME280;3097;42.692;23.278;2023-03-20T05:46:47;95289.81;;;7.80;64.80
6132;BME280;3097;42.692;23.278;2023-03-20T05:49:12;95327.19;;;8.09;64.95
6132;BME280;3097;42.692;23.278;2023-03-20T05:51:38;95321.22;;;7.89;65.07
6132;BME280;3097;42.692;23.278;2023-03-20T05:54:03;95319.22;;;7.84;65.52
6132;BME280;3097;42.692;23.278;2023-03-20T05:56:31;95335.25;;;7.93;65.21
6132;BME280;3097;42.692;23.278;2023-03-20T05:58:56;95328.38;;;8.06;65.42
6132;BME280;3097;42.692;23.278;2023-03-20T06:01:22;95330.38;;;8.11;65.40
6132;BME280;3097;42.692;23.278;2023-03-20T06:03:47;95312.97;;;8.20;64.95
6132;BME280;3097;42.692;23.278;2023-03-20T06:06:14;95325.47;;;8.36;64.77
6132;BME280;3097;42.692;23.278;2023-03-20T06:08:40;95304.75;;;8.44;65.36
6132;BME280;3097;42.692;23.278;2023-03-20T06:11:06;95324.34;;;8.71;64.32
6132;BME280;3097;42.692;23.278;2023-03-20T06:13:32;95272.94;;;8.45;64.22
6132;BME280;3097;42.692;23.278;2023-03-20T06:15:57;95325.06;;;9.05;62.18
6132;BME280;3097;42.692;23.278;2023-03-20T06:18:22;95309.56;;;9.44;59.96
6132;BME280;3097;42.692;23.278;2023-03-20T06:20:52;95323.31;;;10.14;57.18
6132;BME280;3097;42.692;23.278;2023-03-20T06:23:18;95285.19;;;10.54;54.80
6132;BME280;3097;42.692;23.278;2023-03-20T06:25:44;95327.19;;;11.29;52.47
6132;BME280;3097;42.692;23.278;2023-03-20T06:28:09;95322.34;;;12.06;50.73
6132;BME280;3097;42.692;23.278;2023-03-20T06:30:35;95326.66;;;12.53;48.95
6132;BME280;3097;42.692;23.278;2023-03-20T06:33:01;95335.88;;;13.26;47.17
6132;BME280;3097;42.692;23.278;2023-03-20T06:35:26;95310.38;;;13.57;45.93
6132;BME280;3097;42.692;23.278;2023-03-20T06:37:55;95326.44;;;14.11;44.58
6132;BME280;3097;42.692;23.278;2023-03-20T06:40:21;95324.59;;;14.85;44.47
6132;BME280;3097;42.692;23.278;2023-03-20T06:42:46;95322.03;;;15.40;43.16
6132;BME280;3097;42.692;23.278;2023-03-20T06:45:12;95328.44;;;15.93;42.15
6132;BME280;3097;42.692;23.278;2023-03-20T06:47:37;95322.22;;;16.48;40.25
6132;BME280;3097;42.692;23.278;2023-03-20T06:50:03;95291.44;;;16.67;39.39
6132;BME280;3097;42.692;23.278;2023-03-20T06:52:29;95310.00;;;17.12;38.53
6132;BME280;3097;42.692;23.278;2023-03-20T06:54:54;95304.28;;;17.62;37.13
6132;BME280;3097;42.692;23.278;2023-03-20T06:57:21;95307.25;;;17.86;36.79
6132;BME280;3097;42.692;23.278;2023-03-20T06:59:47;95307.59;;;18.15;36.88
6132;BME280;3097;42.692;23.278;2023-03-20T07:02:12;95304.03;;;18.67;36.06
6132;BME280;3097;42.692;23.278;2023-03-20T07:04:38;95270.09;;;18.67;35.51
6132;BME280;3097;42.692;23.278;2023-03-20T07:07:03;95297.00;;;18.72;34.55
6132;BME280;3097;42.692;23.278;2023-03-20T07:09:29;95301.16;;;18.73;35.25
6132;BME280;3097;42.692;23.278;2023-03-20T07:11:54;95290.44;;;19.10;35.13
6132;BME280;3097;42.692;23.278;2023-03-20T07:14:20;95289.66;;;19.15;34.29
6132;BME280;3097;42.692;23.278;2023-03-20T07:16:47;95227.44;;;19.12;34.00
6132;BME280;3097;42.692;23.278;2023-03-20T07:19:12;95290.81;;;19.73;33.29
6132;BME280;3097;42.692;23.278;2023-03-20T07:21:38;95294.47;;;20.26;32.16
6132;BME280;3097;42.692;23.278;2023-03-20T07:24:04;95282.88;;;20.42;32.40
6132;BME280;3097;42.692;23.278;2023-03-20T07:26:31;95295.19;;;20.81;32.44
6132;BME280;3097;42.692;23.278;2023-03-20T07:28:56;95273.28;;;20.67;32.86
6132;BME280;3097;42.692;23.278;2023-03-20T07:31:24;95288.13;;;21.05;32.19
6132;BME280;3097;42.692;23.278;2023-03-20T07:33:50;95263.63;;;20.91;32.00
6132;BME280;3097;42.692;23.278;2023-03-20T07:36:16;95274.75;;;20.78;31.39
6132;BME280;3097;42.692;23.278;2023-03-20T07:38:41;95291.69;;;20.57;32.33
6132;BME280;3097;42.692;23.278;2023-03-20T07:41:06;95281.22;;;21.14;32.78
6132;BME280;3097;42.692;23.278;2023-03-20T07:43:33;95292.72;;;21.47;31.66
6132;BME280;3097;42.692;23.278;2023-03-20T07:46:03;95291.16;;;21.70;31.17
6132;BME280;3097;42.692;23.278;2023-03-20T07:48:28;95290.75;;;21.58;31.02
6132;BME280;3097;42.692;23.278;2023-03-20T07:50:54;95258.47;;;21.39;30.82
6132;BME280;3097;42.692;23.278;2023-03-20T07:53:20;95273.31;;;21.48;31.31
6132;BME280;3097;42.692;23.278;2023-03-20T07:55:45;95279.00;;;21.32;30.87
6132;BME280;3097;42.692;23.278;2023-03-20T07:58:11;95285.22;;;20.78;31.87
6132;BME280;3097;42.692;23.278;2023-03-20T08:00:36;95247.63;;;20.25;32.24
6132;BME280;3097;42.692;23.278;2023-03-20T08:03:02;95289.19;;;20.31;32.29
6132;BME280;3097;42.692;23.278;2023-03-20T08:05:28;95260.97;;;19.84;33.17
6132;BME280;3097;42.692;23.278;2023-03-20T08:07:54;95282.31;;;20.01;33.80
6132;BME280;3097;42.692;23.278;2023-03-20T08:10:19;95262.72;;;19.99;35.01
6132;BME280;3097;42.692;23.278;2023-03-20T08:12:44;95290.47;;;19.95;34.06
6132;BME280;3097;42.692;23.278;2023-03-20T08:15:10;95288.34;;;19.97;33.51
6132;BME280;3097;42.692;23.278;2023-03-20T08:17:35;95258.72;;;19.52;33.47
6132;BME280;3097;42.692;23.278;2023-03-20T08:20:01;95283.56;;;19.45;33.66
6132;BME280;3097;42.692;23.278;2023-03-20T08:22:27;95288.06;;;19.29;34.98
6132;BME280;3097;42.692;23.278;2023-03-20T08:24:53;95281.56;;;19.16;34.92
6132;BME280;3097;42.692;23.278;2023-03-20T08:27:18;95278.94;;;19.11;34.87
6132;BME280;3097;42.692;23.278;2023-03-20T08:29:44;95297.19;;;19.37;34.73
6132;BME280;3097;42.692;23.278;2023-03-20T08:32:09;95256.41;;;19.36;34.21
6132;BME280;3097;42.692;23.278;2023-03-20T08:34:34;95296.59;;;19.65;33.29
6132;BME280;3097;42.692;23.278;2023-03-20T08:37:02;95267.19;;;19.09;33.89
6132;BME280;3097;42.692;23.278;2023-03-20T08:39:29;95286.50;;;19.18;34.61
6132;BME280;3097;42.692;23.278;2023-03-20T08:41:54;95294.56;;;19.37;35.99
6132;BME280;3097;42.692;23.278;2023-03-20T08:44:19;95284.31;;;19.65;34.86
6132;BME280;3097;42.692;23.278;2023-03-20T08:46:45;95282.13;;;19.88;33.70
6132;BME280;3097;42.692;23.278;2023-03-20T08:49:11;95280.53;;;19.92;33.62
6132;BME280;3097;42.692;23.278;2023-03-20T08:51:37;95277.56;;;20.08;33.33
6132;BME280;3097;42.692;23.278;2023-03-20T08:54:02;95251.19;;;19.95;34.29
6132;BME280;3097;42.692;23.278;2023-03-20T08:56:27;95280.56;;;20.36;33.87
6132;BME280;3097;42.692;23.278;2023-03-20T08:58:53;95276.88;;;20.32;31.79
6132;BME280;3097;42.692;23.278;2023-03-20T09:01:20;95285.53;;;19.88;32.16
6132;BME280;3097;42.692;23.278;2023-03-20T09:03:45;95267.31;;;19.63;33.99
6132;BME280;3097;42.692;23.278;2023-03-20T09:06:10;95253.13;;;18.84;33.97
6132;BME280;3097;42.692;23.278;2023-03-20T09:08:36;95278.19;;;19.01;35.90
6132;BME280;3097;42.692;23.278;2023-03-20T09:11:03;95272.91;;;19.11;35.70
6132;BME280;3097;42.692;23.278;2023-03-20T09:13:29;95272.69;;;18.87;34.35
6132;BME280;3097;42.692;23.278;2023-03-20T09:15:55;95257.81;;;18.67;35.97
6132;BME280;3097;42.692;23.278;2023-03-20T09:18:21;95195.41;;;18.35;34.51
6132;BME280;3097;42.692;23.278;2023-03-20T09:20:47;95266.69;;;18.46;35.97
6132;BME280;3097;42.692;23.278;2023-03-20T09:23:13;95257.53;;;18.53;36.40
6132;BME280;3097;42.692;23.278;2023-03-20T09:25:38;95260.94;;;18.74;37.03
6132;BME280;3097;42.692;23.278;2023-03-20T09:28:04;95251.53;;;18.53;35.68
6132;BME280;3097;42.692;23.278;2023-03-20T09:30:29;95245.25;;;18.29;35.77
6132;BME280;3097;42.692;23.278;2023-03-20T09:32:55;95236.09;;;18.16;36.09
6132;BME280;3097;42.692;23.278;2023-03-20T09:35:20;95204.25;;;17.99;35.92
6132;BME280;3097;42.692;23.278;2023-03-20T09:37:46;95244.47;;;18.18;37.36
6132;BME280;3097;42.692;23.278;2023-03-20T09:54:27;95205.31;;;18.23;36.24
6132;BME280;3097;42.692;23.278;2023-03-20T09:56:55;95204.78;;;18.16;37.36
6132;BME280;3097;42.692;23.278;2023-03-20T09:59:23;95190.44;;;17.93;37.19
6132;BME280;3097;42.692;23.278;2023-03-20T10:01:52;95174.75;;;17.73;37.47
6132;BME280;3097;42.692;23.278;2023-03-20T10:04:18;95179.38;;;17.61;37.15
6132;BME280;3097;42.692;23.278;2023-03-20T10:06:44;95183.00;;;17.55;37.45
6132;BME280;3097;42.692;23.278;2023-03-20T10:09:16;95181.97;;;17.51;36.96
6132;BME280;3097;42.692;23.278;2023-03-20T10:14:40;95168.06;;;17.25;38.48
6132;BME280;3097;42.692;23.278;2023-03-20T10:17:49;95169.94;;;17.34;39.26
6132;BME280;3097;42.692;23.278;2023-03-20T10:20:39;95165.75;;;17.38;37.41
6132;BME280;3097;42.692;23.278;2023-03-20T10:23:15;95163.66;;;17.30;38.81
6132;BME280;3097;42.692;23.278;2023-03-20T10:25:50;95161.06;;;17.40;39.24
6132;BME280;3097;42.692;23.278;2023-03-20T10:28:21;95153.25;;;17.46;39.17
6132;BME280;3097;42.692;23.278;2023-03-20T10:31:42;95150.44;;;17.57;37.77
6132;BME280;3097;42.692;23.278;2023-03-20T10:41:46;95144.50;;;17.72;39.94
6132;BME280;3097;42.692;23.278;2023-03-20T10:44:18;95138.75;;;17.70;37.94
6132;BME280;3097;42.692;23.278;2023-03-20T10:46:50;95128.84;;;17.77;38.32
6132;BME280;3097;42.692;23.278;2023-03-20T10:51:57;95122.34;;;18.00;37.14
6132;BME280;3097;42.692;23.278;2023-03-20T10:56:55;95115.81;;;17.82;36.70
6132;BME280;3097;42.692;23.278;2023-03-20T11:01:55;95112.66;;;17.75;37.42
6132;BME280;3097;42.692;23.278;2023-03-20T11:04:21;95113.72;;;17.79;37.23
6132;BME280;3097;42.692;23.278;2023-03-20T11:06:59;95100.69;;;17.84;36.57
6132;BME280;3097;42.692;23.278;2023-03-20T11:09:27;95098.88;;;17.85;36.42
6132;BME280;3097;42.692;23.278;2023-03-20T11:11:57;95099.13;;;17.88;35.95
6132;BME280;3097;42.692;23.278;2023-03-20T11:14:32;95097.81;;;17.70;35.60
6132;BME280;3097;42.692;23.278;2023-03-20T11:17:00;95089.75;;;17.72;35.52
6132;BME280;3097;42.692;23.278;2023-03-20T11:19:31;95085.53;;;17.56;35.96
6132;BME280;3097;42.692;23.278;2023-03-20T11:21:59;95084.22;;;17.58;36.02
6132;BME280;3097;42.692;23.278;2023-03-20T11:27:11;95067.84;;;17.88;36.55
6132;BME280;3097;42.692;23.278;2023-03-20T11:29:38;95068.34;;;17.95;36.58
6132;BME280;3097;42.692;23.278;2023-03-20T11:34:49;95064.16;;;18.25;34.39
6132;BME280;3097;42.692;23.278;2023-03-20T11:37:27;95060.75;;;18.14;34.55
6132;BME280;3097;42.692;23.278;2023-03-20T11:40:09;95055.25;;;18.21;35.18
6132;BME280;3097;42.692;23.278;2023-03-20T11:42:38;95044.28;;;18.29;34.76
6132;BME280;3097;42.692;23.278;2023-03-20T11:45:12;95040.09;;;18.28;34.29
6132;BME280;3097;42.692;23.278;2023-03-20T11:47:40;95016.66;;;18.23;33.90
6132;BME280;3097;42.692;23.278;2023-03-20T11:50:12;95026.28;;;18.32;33.04
6132;BME280;3097;42.692;23.278;2023-03-20T11:52:48;95005.69;;;18.21;33.28
6132;BME280;3097;42.692;23.278;2023-03-20T11:55:29;95020.53;;;18.40;33.24
6132;BME280;3097;42.692;23.278;2023-03-20T11:57:59;95011.63;;;18.46;32.81
6132;BME280;3097;42.692;23.278;2023-03-20T12:00:30;94976.63;;;18.42;31.84
6132;BME280;3097;42.692;23.278;2023-03-20T12:03:00;95010.78;;;18.71;32.10
6132;BME280;3097;42.692;23.278;2023-03-20T12:05:34;95002.94;;;18.66;31.99
6132;BME280;3097;42.692;23.278;2023-03-20T12:08:24;94993.88;;;18.48;32.01
6132;BME280;3097;42.692;23.278;2023-03-20T12:11:05;94991.16;;;18.74;32.04
6132;BME280;3097;42.692;23.278;2023-03-20T12:13:34;94991.97;;;18.69;32.12
6132;BME280;3097;42.692;23.278;2023-03-20T12:16:05;94986.72;;;18.74;31.54
6132;BME280;3097;42.692;23.278;2023-03-20T12:18:42;94986.69;;;18.84;31.37
6132;BME280;3097;42.692;23.278;2023-03-20T12:21:14;94981.88;;;18.97;30.69
6132;BME280;3097;42.692;23.278;2023-03-20T12:23:55;94977.59;;;19.16;30.38
6132;BME280;3097;42.692;23.278;2023-03-20T12:28:55;94984.31;;;19.27;30.19
6132;BME280;3097;42.692;23.278;2023-03-20T12:31:41;94977.91;;;19.43;29.03
6132;BME280;3097;42.692;23.278;2023-03-20T12:34:23;94972.22;;;19.36;29.95
6132;BME280;3097;42.692;23.278;2023-03-20T12:36:53;94966.75;;;19.32;29.25
6132;BME280;3097;42.692;23.278;2023-03-20T12:39:23;94966.47;;;19.39;29.62
6132;BME280;3097;42.692;23.278;2023-03-20T12:45:12;94960.25;;;19.25;28.27
6132;BME280;3097;42.692;23.278;2023-03-20T12:53:52;94942.41;;;19.37;27.19
6132;BME280;3097;42.692;23.278;2023-03-20T12:59:22;94937.19;;;19.37;27.59
6132;BME280;3097;42.692;23.278;2023-03-20T13:10:22;94926.28;;;19.59;27.87
6132;BME280;3097;42.692;23.278;2023-03-20T13:12:57;94927.94;;;19.50;26.33
6132;BME280;3097;42.692;23.278;2023-03-20T13:15:30;94919.22;;;19.59;27.07
6132;BME280;3097;42.692;23.278;2023-03-20T13:18:06;94917.72;;;19.53;26.50
6132;BME280;3097;42.692;23.278;2023-03-20T13:20:39;94890.06;;;19.42;26.79
6132;BME280;3097;42.692;23.278;2023-03-20T13:39:30;94876.00;;;19.91;25.15
6132;BME280;3097;42.692;23.278;2023-03-20T13:41:59;94883.47;;;19.79;25.52
6132;BME280;3097;42.692;23.278;2023-03-20T13:44:27;94884.41;;;19.88;25.68
6132;BME280;3097;42.692;23.278;2023-03-20T13:47:02;94860.88;;;19.88;25.57
6132;BME280;3097;42.692;23.278;2023-03-20T13:54:36;94872.38;;;19.87;25.79
6132;BME280;3097;42.692;23.278;2023-03-20T14:05:24;94861.69;;;20.07;25.63
6132;BME280;3097;42.692;23.278;2023-03-20T14:07:55;94832.50;;;19.95;26.82
6132;BME280;3097;42.692;23.278;2023-03-20T14:13:14;94848.47;;;20.17;25.51
6132;BME280;3097;42.692;23.278;2023-03-20T14:16:02;94838.69;;;20.23;24.83
6132;BME280;3097;42.692;23.278;2023-03-20T14:18:29;94841.31;;;20.23;25.76
6132;BME280;3097;42.692;23.278;2023-03-20T14:20:59;94830.84;;;20.04;25.81
6132;BME280;3097;42.692;23.278;2023-03-20T14:26:21;94786.03;;;19.87;24.86
6132;BME280;3097;42.692;23.278;2023-03-20T14:28:54;94846.28;;;20.24;25.32
6132;BME280;3097;42.692;23.278;2023-03-20T14:31:23;94843.03;;;20.32;25.45
6132;BME280;3097;42.692;23.278;2023-03-20T14:36:28;94835.81;;;20.24;25.75
6132;BME280;3097;42.692;23.278;2023-03-20T14:44:44;94832.91;;;20.07;24.72
6132;BME280;3097;42.692;23.278;2023-03-20T14:47:38;94814.97;;;19.95;24.51
6132;BME280;3097;42.692;23.278;2023-03-20T14:53:15;94828.50;;;20.02;24.32
6132;BME280;3097;42.692;23.278;2023-03-20T14:55:50;94827.22;;;20.00;24.78
6132;BME280;3097;42.692;23.278;2023-03-20T14:58:47;94827.50;;;19.98;24.47
6132;BME280;3097;42.692;23.278;2023-03-20T15:03:57;94811.25;;;19.78;24.42
6132;BME280;3097;42.692;23.278;2023-03-20T15:06:26;94796.84;;;19.61;24.55
6132;BME280;3097;42.692;23.278;2023-03-20T15:08:55;94826.31;;;19.67;24.85
6132;BME280;3097;42.692;23.278;2023-03-20T15:11:22;94825.88;;;19.60;24.70
6132;BME280;3097;42.692;23.278;2023-03-20T15:13:49;94827.25;;;19.52;24.86
6132;BME280;3097;42.692;23.278;2023-03-20T15:16:16;94821.31;;;19.42;25.54
6132;BME280;3097;42.692;23.278;2023-03-20T15:18:49;94824.84;;;19.32;24.79
6132;BME280;3097;42.692;23.278;2023-03-20T15:21:18;94824.59;;;19.28;25.20
6132;BME280;3097;42.692;23.278;2023-03-20T15:23:45;94823.91;;;19.18;25.23
6132;BME280;3097;42.692;23.278;2023-03-20T15:26:15;94822.38;;;19.17;25.36
6132;BME280;3097;42.692;23.278;2023-03-20T15:28:42;94820.50;;;19.17;25.94
6132;BME280;3097;42.692;23.278;2023-03-20T15:31:22;94827.34;;;19.13;25.77
6132;BME280;3097;42.692;23.278;2023-03-20T15:33:49;94824.22;;;19.11;25.96
6132;BME280;3097;42.692;23.278;2023-03-20T15:36:17;94824.78;;;19.08;26.21
6132;BME280;3097;42.692;23.278;2023-03-20T15:38:45;94821.66;;;19.06;26.12
6132;BME280;3097;42.692;23.278;2023-03-20T15:41:32;94813.09;;;19.01;26.03
6132;BME280;3097;42.692;23.278;2023-03-20T15:44:16;94812.25;;;19.05;25.62
6132;BME280;3097;42.692;23.278;2023-03-20T15:49:36;94822.50;;;19.02;25.84
6132;BME280;3097;42.692;23.278;2023-03-20T15:52:06;94818.06;;;18.97;25.69
6132;BME280;3097;42.692;23.278;2023-03-20T15:54:32;94819.97;;;18.91;26.13
6132;BME280;3097;42.692;23.278;2023-03-20T15:57:00;94826.28;;;18.85;26.60
6132;BME280;3097;42.692;23.278;2023-03-20T15:59:29;94825.03;;;18.78;27.17
6132;BME280;3097;42.692;23.278;2023-03-20T16:01:58;94830.06;;;18.69;28.92
6132;BME280;3097;42.692;23.278;2023-03-20T16:04:25;94810.91;;;18.40;29.59
6132;BME280;3097;42.692;23.278;2023-03-20T16:06:57;94833.84;;;18.48;29.86